sensor_id;sensor_type;location;lat;lon;timestamp;temperature;humidity
6018;DHT22;3037;51.068;13.780;2023-10-19T00:00:19;9.40;1.00
6018;DHT22;3037;51.068;13.780;2023-10-19T00:02:46;9.40;1.00
6018;DHT22;3037;51.068;13.780;2023-10-19T00:05:11;9.40;1.00
6018;DHT22;3037;51.068;13.780;2023-10-19T00:07:40;9.30;1.00
6018;DHT22;3037;51.068;13.780;2023-10-19T00:10:06;9.40;1.00
6018;DHT22;3037;51.068;13.780;2023-10-19T00:12:32;9.40;1.00
6018;DHT22;3037;51.068;13.780;2023-10-19T00:14:58;9.30;1.00
6018;DHT22;3037;51.068;13.780;2023-10-19T00:17:24;9.30;1.00
6018;DHT22;3037;51.068;13.780;2023-10-19T00:19:52;9.30;1.00
6018;DHT22;3037;51.068;13.780;2023-10-19T00:22:36;9.30;1.00
6018;DHT22;3037;51.068;13.780;2023-10-19T00:25:02;9.30;1.00
6018;DHT22;3037;51.068;13.780;2023-10-19T00:27:29;9.40;1.00
6018;DHT22;3037;51.068;13.780;2023-10-19T00:29:54;9.40;1.00
6018;DHT22;3037;51.068;13.780;2023-10-19T00:32:31;9.40;1.00
6018;DHT22;3037;51.068;13.780;2023-10-19T00:34:56;9.40;1.00
6018;DHT22;3037;51.068;13.780;2023-10-19T00:37:22;9.30;1.00
6018;DHT22;3037;51.068;13.780;2023-10-19T00:39:57;9.30;1.00
6018;DHT22;3037;51.068;13.780;2023-10-19T00:42:39;9.40;1.00
6018;DHT22;3037;51.068;13.780;2023-10-19T00:45:11;9.30;1.00
6018;DHT22;3037;51.068;13.780;2023-10-19T00:47:38;9.30;1.00
6018;DHT22;3037;51.068;13.780;2023-10-19T00:50:09;9.20;1.00
6018;DHT22;3037;51.068;13.780;2023-10-19T00:52:42;9.30;1.00
6018;DHT22;3037;51.068;13.780;2023-10-19T00:55:16;9.20;1.00
6018;DHT22;3037;51.068;13.780;2023-10-19T00:57:43;9.30;1.00
6018;DHT22;3037;51.068;13.780;2023-10-19T01:00:14;9.30;1.00
6018;DHT22;3037;51.068;13.780;2023-10-19T01:02:48;9.20;1.00
6018;DHT22;3037;51.068;13.780;2023-10-19T01:05:16;9.30;1.00
6018;DHT22;3037;51.068;13.780;2023-10-19T01:07:47;9.30;1.00
6018;DHT22;3037;51.068;13.780;2023-10-19T01:10:18;9.20;1.00
6018;DHT22;3037;51.068;13.780;2023-10-19T01:12:48;9.30;1.00
6018;DHT22;3037;51.068;13.780;2023-10-19T01:15:18;9.30;1.00
6018;DHT22;3037;51.068;13.780;2023-10-19T01:17:54;9.20;1.00
6018;DHT22;3037;51.068;13.780;2023-10-19T01:20:28;9.30;1.00
6018;DHT22;3037;51.068;13.780;2023-10-19T01:22:58;9.30;1.00
6018;DHT22;3037;51.068;13.780;2023-10-19T01:25:56;9.30;1.00
6018;DHT22;3037;51.068;13.780;2023-10-19T01:28:42;9.30;1.00
6018;DHT22;3037;51.068;13.780;2023-10-19T01:31:19;9.30;1.00
6018;DHT22;3037;51.068;13.780;2023-10-19T01:34:00;9.40;1.00
6018;DHT22;3037;51.068;13.780;2023-10-19T01:36:32;9.40;1.00
6018;DHT22;3037;51.068;13.780;2023-10-19T01:39:09;9.50;1.00
6018;DHT22;3037;51.068;13.780;2023-10-19T01:41:36;9.40;1.00
6018;DHT22;3037;51.068;13.780;2023-10-19T01:44:02;9.40;1.00
6018;DHT22;3037;51.068;13.780;2023-10-19T01:46:33;9.50;1.00
6018;DHT22;3037;51.068;13.780;2023-10-19T01:49:00;9.50;1.00
6018;DHT22;3037;51.068;13.780;2023-10-19T01:51:29;9.50;1.00
6018;DHT22;3037;51.068;13.780;2023-10-19T01:53:56;9.50;1.00
6018;DHT22;3037;51.068;13.780;2023-10-19T01:56:22;9.50;1.00
6018;DHT22;3037;51.068;13.780;2023-10-19T01:58:49;9.50;1.00
6018;DHT22;3037;51.068;13.780;2023-10-19T02:01:17;9.50;1.00
6018;DHT22;3037;51.068;13.780;2023-10-19T02:03:48;9.60;1.00
6018;DHT22;3037;51.068;13.780;2023-10-19T02:06:21;9.50;1.00
6018;DHT22;3037;51.068;13.780;2023-10-19T02:09:06;9.50;1.00
6018;DHT22;3037;51.068;13.780;2023-10-19T02:11:35;9.50;1.00
6018;DHT22;3037;51.068;13.780;2023-10-19T02:14:08;9.50;1.00
6018;DHT22;3037;51.068;13.780;2023-10-19T02:16:45;9.60;1.00
6018;DHT22;3037;51.068;13.780;2023-10-19T02:19:18;9.60;1.00
6018;DHT22;3037;51.068;13.780;2023-10-19T02:21:58;9.60;1.00
6018;DHT22;3037;51.068;13.780;2023-10-19T02:24:25;9.50;1.00
6018;DHT22;3037;51.068;13.780;2023-10-19T02:26:54;9.60;1.00
6018;DHT22;3037;51.068;13.780;2023-10-19T02:29:20;9.60;1.00
6018;DHT22;3037;51.068;13.780;2023-10-19T02:31:49;9.60;1.00
6018;DHT22;3037;51.068;13.780;2023-10-19T02:34:19;9.60;1.00
6018;DHT22;3037;51.068;13.780;2023-10-19T02:36:45;9.60;1.00
6018;DHT22;3037;51.068;13.780;2023-10-19T02:39:12;9.60;1.00
6018;DHT22;3037;51.068;13.780;2023-10-19T02:41:41;9.50;1.00
6018;DHT22;3037;51.068;13.780;2023-10-19T02:44:15;9.60;1.00
6018;DHT22;3037;51.068;13.780;2023-10-19T02:46:44;9.60;1.00
6018;DHT22;3037;51.068;13.780;2023-10-19T02:49:11;9.50;1.00
6018;DHT22;3037;51.068;13.780;2023-10-19T02:51:39;9.50;1.00
6018;DHT22;3037;51.068;13.780;2023-10-19T02:54:07;9.50;1.00
6018;DHT22;3037;51.068;13.780;2023-10-19T02:56:33;9.50;1.00
6018;DHT22;3037;51.068;13.780;2023-10-19T02:59:03;9.50;1.00
6018;DHT22;3037;51.068;13.780;2023-10-19T03:01:30;9.50;1.00
6018;DHT22;3037;51.068;13.780;2023-10-19T03:03:58;9.50;1.00
6018;DHT22;3037;51.068;13.780;2023-10-19T03:06:29;9.60;1.00
6018;DHT22;3037;51.068;13.780;2023-10-19T03:09:04;9.60;1.00
6018;DHT22;3037;51.068;13.780;2023-10-19T03:11:42;9.60;1.00
6018;DHT22;3037;51.068;13.780;2023-10-19T03:14:08;9.60;1.00
6018;DHT22;3037;51.068;13.780;2023-10-19T03:16:36;9.50;1.00
6018;DHT22;3037;51.068;13.780;2023-10-19T03:19:02;9.40;1.00
6018;DHT22;3037;51.068;13.780;2023-10-19T03:21:29;9.40;1.00
6018;DHT22;3037;51.068;13.780;2023-10-19T03:23:58;9.20;1.00
6018;DHT22;3037;51.068;13.780;2023-10-19T03:26:27;9.20;1.00
6018;DHT22;3037;51.068;13.780;2023-10-19T03:28:56;9.10;1.00
6018;DHT22;3037;51.068;13.780;2023-10-19T03:31:24;9.10;1.00
6018;DHT22;3037;51.068;13.780;2023-10-19T03:33:51;9.00;62.90
6018;DHT22;3037;51.068;13.780;2023-10-19T03:36:23;8.90;99.90
6018;DHT22;3037;51.068;13.780;2023-10-19T03:38:50;8.90;99.90
6018;DHT22;3037;51.068;13.780;2023-10-19T03:41:20;8.80;99.90
6018;DHT22;3037;51.068;13.780;2023-10-19T03:43:55;8.80;99.90
6018;DHT22;3037;51.068;13.780;2023-10-19T03:46:22;8.80;99.90
6018;DHT22;3037;51.068;13.780;2023-10-19T03:48:56;8.80;1.00
6018;DHT22;3037;51.068;13.780;2023-10-19T03:51:27;8.80;1.00
6018;DHT22;3037;51.068;13.780;2023-10-19T03:54:05;8.70;1.00
6018;DHT22;3037;51.068;13.780;2023-10-19T03:56:40;8.70;1.00
6018;DHT22;3037;51.068;13.780;2023-10-19T03:59:06;8.70;1.00
6018;DHT22;3037;51.068;13.780;2023-10-19T04:01:32;8.70;1.00
6018;DHT22;3037;51.068;13.780;2023-10-19T04:03:57;8.60;1.00
6018;DHT22;3037;51.068;13.780;2023-10-19T04:06:23;8.60;1.00
6018;DHT22;3037;51.068;13.780;2023-10-19T04:08:48;8.50;99.90
6018;DHT22;3037;51.068;13.780;2023-10-19T04:11:17;8.50;1.00
6018;DHT22;3037;51.068;13.780;2023-10-19T04:13:49;8.50;99.90
6018;DHT22;3037;51.068;13.780;2023-10-19T04:16:21;8.40;1.00
6018;DHT22;3037;51.068;13.780;2023-10-19T04:18:47;8.40;1.00
6018;DHT22;3037;51.068;13.780;2023-10-19T04:21:13;8.40;1.00
6018;DHT22;3037;51.068;13.780;2023-10-19T04:23:39;8.20;99.90
6018;DHT22;3037;51.068;13.780;2023-10-19T04:26:04;8.20;99.90
6018;DHT22;3037;51.068;13.780;2023-10-19T04:28:31;8.10;1.00
6018;DHT22;3037;51.068;13.780;2023-10-19T04:31:03;8.00;99.90
6018;DHT22;3037;51.068;13.780;2023-10-19T04:33:31;7.90;99.90
6018;DHT22;3037;51.068;13.780;2023-10-19T04:35:57;7.80;99.90
6018;DHT22;3037;51.068;13.780;2023-10-19T04:38:26;7.50;99.90
6018;DHT22;3037;51.068;13.780;2023-10-19T04:40:52;7.40;99.90
6018;DHT22;3037;51.068;13.780;2023-10-19T04:43:17;7.20;99.90
6018;DHT22;3037;51.068;13.780;2023-10-19T04:45:43;7.20;99.90
6018;DHT22;3037;51.068;13.780;2023-10-19T04:48:10;7.20;99.90
6018;DHT22;3037;51.068;13.780;2023-10-19T04:50:36;7.20;99.90
6018;DHT22;3037;51.068;13.780;2023-10-19T04:53:02;7.00;99.90
6018;DHT22;3037;51.068;13.780;2023-10-19T04:55:29;6.90;99.90
6018;DHT22;3037;51.068;13.780;2023-10-19T04:57:55;6.80;99.90
6018;DHT22;3037;51.068;13.780;2023-10-19T05:00:22;6.80;99.90
6018;DHT22;3037;51.068;13.780;2023-10-19T05:02:50;6.70;99.90
6018;DHT22;3037;51.068;13.780;2023-10-19T05:05:17;6.80;99.90
6018;DHT22;3037;51.068;13.780;2023-10-19T05:07:43;6.70;99.90
6018;DHT22;3037;51.068;13.780;2023-10-19T05:10:09;6.80;99.90
6018;DHT22;3037;51.068;13.780;2023-10-19T05:12:34;6.80;99.90
6018;DHT22;3037;51.068;13.780;2023-10-19T05:15:00;6.70;99.90
6018;DHT22;3037;51.068;13.780;2023-10-19T05:17:25;6.70;99.90
6018;DHT22;3037;51.068;13.780;2023-10-19T05:19:52;6.60;99.90
6018;DHT22;3037;51.068;13.780;2023-10-19T05:22:18;6.60;99.90
6018;DHT22;3037;51.068;13.780;2023-10-19T05:24:44;6.60;99.90
6018;DHT22;3037;51.068;13.780;2023-10-19T05:27:09;6.60;99.90
6018;DHT22;3037;51.068;13.780;2023-10-19T05:29:35;6.70;99.90
6018;DHT22;3037;51.068;13.780;2023-10-19T05:32:01;6.70;99.90
6018;DHT22;3037;51.068;13.780;2023-10-19T05:34:29;6.60;99.90
6018;DHT22;3037;51.068;13.780;2023-10-19T05:36:55;6.60;99.90
6018;DHT22;3037;51.068;13.780;2023-10-19T05:39:24;6.80;99.90
6018;DHT22;3037;51.068;13.780;2023-10-19T05:41:53;6.70;99.90
6018;DHT22;3037;51.068;13.780;2023-10-19T05:44:19;6.70;99.90
6018;DHT22;3037;51.068;13.780;2023-10-19T05:46:44;6.70;99.90
6018;DHT22;3037;51.068;13.780;2023-10-19T05:49:12;6.70;99.90
6018;DHT22;3037;51.068;13.780;2023-10-19T05:51:38;6.70;99.90
6018;DHT22;3037;51.068;13.780;2023-10-19T05:54:04;6.70;99.90
6018;DHT22;3037;51.068;13.780;2023-10-19T05:56:33;6.70;99.90
6018;DHT22;3037;51.068;13.780;2023-10-19T05:59:01;6.70;99.90
6018;DHT22;3037;51.068;13.780;2023-10-19T06:01:27;6.80;99.90
6018;DHT22;3037;51.068;13.780;2023-10-19T06:03:53;6.80;99.90
6018;DHT22;3037;51.068;13.780;2023-10-19T06:06:21;6.70;99.90
6018;DHT22;3037;51.068;13.780;2023-10-19T06:08:47;6.70;99.90
6018;DHT22;3037;51.068;13.780;2023-10-19T06:11:13;6.80;99.90
6018;DHT22;3037;51.068;13.780;2023-10-19T06:13:41;6.70;99.90
6018;DHT22;3037;51.068;13.780;2023-10-19T06:16:09;6.80;99.90
6018;DHT22;3037;51.068;13.780;2023-10-19T06:18:35;7.40;99.90
6018;DHT22;3037;51.068;13.780;2023-10-19T06:21:00;6.80;99.90
6018;DHT22;3037;51.068;13.780;2023-10-19T06:23:26;6.80;99.90
6018;DHT22;3037;51.068;13.780;2023-10-19T06:25:51;6.80;99.90
6018;DHT22;3037;51.068;13.780;2023-10-19T06:28:17;6.90;99.90
6018;DHT22;3037;51.068;13.780;2023-10-19T06:30:43;6.90;99.90
6018;DHT22;3037;51.068;13.780;2023-10-19T06:33:09;6.90;99.90
6018;DHT22;3037;51.068;13.780;2023-10-19T06:35:34;6.90;99.90
6018;DHT22;3037;51.068;13.780;2023-10-19T06:38:03;6.90;99.90
6018;DHT22;3037;51.068;13.780;2023-10-19T06:40:29;7.00;99.90
6018;DHT22;3037;51.068;13.780;2023-10-19T06:42:56;7.00;99.90
6018;DHT22;3037;51.068;13.780;2023-10-19T06:45:22;7.00;99.90
6018;DHT22;3037;51.068;13.780;2023-10-19T06:47:49;7.00;99.90
6018;DHT22;3037;51.068;13.780;2023-10-19T06:50:17;7.00;99.90
6018;DHT22;3037;51.068;13.780;2023-10-19T06:52:44;7.00;99.90
6018;DHT22;3037;51.068;13.780;2023-10-19T06:55:11;7.00;99.90
6018;DHT22;3037;51.068;13.780;2023-10-19T06:57:43;7.00;99.90
6018;DHT22;3037;51.068;13.780;2023-10-19T07:00:12;7.00;99.90
6018;DHT22;3037;51.068;13.780;2023-10-19T07:02:45;7.00;99.90
6018;DHT22;3037;51.068;13.780;2023-10-19T07:05:12;7.00;99.90
6018;DHT22;3037;51.068;13.780;2023-10-19T07:07:42;7.00;99.90
6018;DHT22;3037;51.068;13.780;2023-10-19T07:10:09;7.00;99.90
6018;DHT22;3037;51.068;13.780;2023-10-19T07:12:36;7.00;99.90
6018;DHT22;3037;51.068;13.780;2023-10-19T07:15:04;7.00;99.90
6018;DHT22;3037;51.068;13.780;2023-10-19T07:17:33;7.00;99.90
6018;DHT22;3037;51.068;13.780;2023-10-19T07:19:59;7.00;99.90
6018;DHT22;3037;51.068;13.780;2023-10-19T07:25:50;7.00;99.90
6018;DHT22;3037;51.068;13.780;2023-10-19T07:28:21;7.00;99.90
6018;DHT22;3037;51.068;13.780;2023-10-19T07:30:48;7.00;99.90
6018;DHT22;3037;51.068;13.780;2023-10-19T07:33:14;7.00;99.90
6018;DHT22;3037;51.068;13.780;2023-10-19T07:35:43;7.10;99.90
6018;DHT22;3037;51.068;13.780;2023-10-19T07:38:12;7.10;99.90
6018;DHT22;3037;51.068;13.780;2023-10-19T07:40:39;7.00;99.90
6018;DHT22;3037;51.068;13.780;2023-10-19T07:43:04;7.00;99.90
6018;DHT22;3037;51.068;13.780;2023-10-19T07:45:31;7.10;99.90
6018;DHT22;3037;51.068;13.780;2023-10-19T07:47:58;7.10;99.90
6018;DHT22;3037;51.068;13.780;2023-10-19T07:50:32;7.10;99.90
6018;DHT22;3037;51.068;13.780;2023-10-19T07:52:58;7.10;99.90
6018;DHT22;3037;51.068;13.780;2023-10-19T07:55:23;7.00;99.90
6018;DHT22;3037;51.068;13.780;2023-10-19T07:57:50;7.00;99.90
6018;DHT22;3037;51.068;13.780;2023-10-19T08:00:16;7.10;99.90
6018;DHT22;3037;51.068;13.780;2023-10-19T08:02:43;7.10;99.90
6018;DHT22;3037;51.068;13.780;2023-10-19T08:05:15;7.90;99.90
6018;DHT22;3037;51.068;13.780;2023-10-19T08:07:43;7.10;99.90
6018;DHT22;3037;51.068;13.780;2023-10-19T08:10:10;7.10;99.90
6018;DHT22;3037;51.068;13.780;2023-10-19T08:12:40;7.10;99.90
6018;DHT22;3037;51.068;13.780;2023-10-19T08:15:09;7.10;99.90
6018;DHT22;3037;51.068;13.780;2023-10-19T08:17:40;7.10;99.90
6018;DHT22;3037;51.068;13.780;2023-10-19T08:20:07;7.10;99.90
6018;DHT22;3037;51.068;13.780;2023-10-19T08:22:38;7.10;99.90
6018;DHT22;3037;51.068;13.780;2023-10-19T08:25:04;7.20;99.90
6018;DHT22;3037;51.068;13.780;2023-10-19T08:27:43;7.00;99.90
6018;DHT22;3037;51.068;13.780;2023-10-19T08:30:19;7.10;99.90
6018;DHT22;3037;51.068;13.780;2023-10-19T08:32:46;7.20;99.90
6018;DHT22;3037;51.068;13.780;2023-10-19T08:35:15;7.20;99.90
6018;DHT22;3037;51.068;13.780;2023-10-19T08:37:43;7.20;99.90
6018;DHT22;3037;51.068;13.780;2023-10-19T08:40:12;7.20;99.90
6018;DHT22;3037;51.068;13.780;2023-10-19T08:42:41;7.30;99.90
6018;DHT22;3037;51.068;13.780;2023-10-19T08:45:07;7.30;99.90
6018;DHT22;3037;51.068;13.780;2023-10-19T08:47:37;7.30;99.90
6018;DHT22;3037;51.068;13.780;2023-10-19T08:50:07;7.40;99.90
6018;DHT22;3037;51.068;13.780;2023-10-19T08:52:34;7.40;99.90
6018;DHT22;3037;51.068;13.780;2023-10-19T08:55:01;7.40;99.90
6018;DHT22;3037;51.068;13.780;2023-10-19T08:57:27;7.40;99.90
6018;DHT22;3037;51.068;13.780;2023-10-19T08:59:56;7.50;99.90
6018;DHT22;3037;51.068;13.780;2023-10-19T09:02:24;7.50;99.90
6018;DHT22;3037;51.068;13.780;2023-10-19T09:04:49;7.60;99.90
6018;DHT22;3037;51.068;13.780;2023-10-19T09:07:16;7.50;99.90
6018;DHT22;3037;51.068;13.780;2023-10-19T09:09:42;7.60;99.90
6018;DHT22;3037;51.068;13.780;2023-10-19T09:12:07;7.70;99.90
6018;DHT22;3037;51.068;13.780;2023-10-19T09:14:35;7.90;99.90
6018;DHT22;3037;51.068;13.780;2023-10-19T09:17:02;7.90;99.90
6018;DHT22;3037;51.068;13.780;2023-10-19T09:19:40;8.10;99.90
6018;DHT22;3037;51.068;13.780;2023-10-19T09:22:08;8.10;99.90
6018;DHT22;3037;51.068;13.780;2023-10-19T09:24:42;8.10;99.90
6018;DHT22;3037;51.068;13.780;2023-10-19T09:27:08;8.20;99.90
6018;DHT22;3037;51.068;13.780;2023-10-19T09:29:33;8.30;99.90
6018;DHT22;3037;51.068;13.780;2023-10-19T09:31:59;8.30;99.90
6018;DHT22;3037;51.068;13.780;2023-10-19T09:34:29;8.40;99.90
6018;DHT22;3037;51.068;13.780;2023-10-19T09:36:59;8.50;99.90
6018;DHT22;3037;51.068;13.780;2023-10-19T09:39:27;8.60;99.90
6018;DHT22;3037;51.068;13.780;2023-10-19T09:42:07;8.70;99.90
6018;DHT22;3037;51.068;13.780;2023-10-19T09:44:47;8.60;99.90
6018;DHT22;3037;51.068;13.780;2023-10-19T09:47:35;8.70;99.90
6018;DHT22;3037;51.068;13.780;2023-10-19T09:50:03;8.70;99.90
6018;DHT22;3037;51.068;13.780;2023-10-19T09:52:32;8.80;99.90
6018;DHT22;3037;51.068;13.780;2023-10-19T09:57:53;8.80;99.90
6018;DHT22;3037;51.068;13.780;2023-10-19T10:00:20;9.00;99.90
6018;DHT22;3037;51.068;13.780;2023-10-19T10:02:49;9.10;99.90
6018;DHT22;3037;51.068;13.780;2023-10-19T10:10:50;9.00;99.90
6018;DHT22;3037;51.068;13.780;2023-10-19T10:15:58;8.80;99.90
6018;DHT22;3037;51.068;13.780;2023-10-19T10:18:24;8.80;99.90
6018;DHT22;3037;51.068;13.780;2023-10-19T10:21:13;9.00;99.90
6018;DHT22;3037;51.068;13.780;2023-10-19T10:23:41;9.00;99.90
6018;DHT22;3037;51.068;13.780;2023-10-19T10:26:11;9.00;99.90
6018;DHT22;3037;51.068;13.780;2023-10-19T10:28:40;9.00;99.90
6018;DHT22;3037;51.068;13.780;2023-10-19T10:31:12;9.00;99.90
6018;DHT22;3037;51.068;13.780;2023-10-19T10:36:14;9.20;99.90
6018;DHT22;3037;51.068;13.780;2023-10-19T10:38:40;9.30;99.90
6018;DHT22;3037;51.068;13.780;2023-10-19T10:41:06;9.30;99.90
6018;DHT22;3037;51.068;13.780;2023-10-19T10:43:51;9.20;99.90
6018;DHT22;3037;51.068;13.780;2023-10-19T10:46:23;9.30;99.90
6018;DHT22;3037;51.068;13.780;2023-10-19T10:48:49;9.50;99.90
6018;DHT22;3037;51.068;13.780;2023-10-19T10:51:20;9.60;99.90
6018;DHT22;3037;51.068;13.780;2023-10-19T10:53:48;9.60;99.90
6018;DHT22;3037;51.068;13.780;2023-10-19T10:56:14;9.60;99.90
6018;DHT22;3037;51.068;13.780;2023-10-19T10:58:40;9.70;99.90
6018;DHT22;3037;51.068;13.780;2023-10-19T11:01:06;9.70;99.90
6018;DHT22;3037;51.068;13.780;2023-10-19T11:03:32;9.80;99.90
6018;DHT22;3037;51.068;13.780;2023-10-19T11:06:07;9.90;99.90
6018;DHT22;3037;51.068;13.780;2023-10-19T11:08:37;10.10;99.90
6018;DHT22;3037;51.068;13.780;2023-10-19T11:11:10;10.30;99.90
6018;DHT22;3037;51.068;13.780;2023-10-19T11:13:37;10.30;99.90
6018;DHT22;3037;51.068;13.780;2023-10-19T11:16:05;10.30;99.90
6018;DHT22;3037;51.068;13.780;2023-10-19T11:18:33;10.20;99.90
6018;DHT22;3037;51.068;13.780;2023-10-19T11:21:06;10.00;99.90
6018;DHT22;3037;51.068;13.780;2023-10-19T11:23:42;10.20;99.90
6018;DHT22;3037;51.068;13.780;2023-10-19T11:26:15;10.20;99.90
6018;DHT22;3037;51.068;13.780;2023-10-19T11:28:41;10.30;99.90
6018;DHT22;3037;51.068;13.780;2023-10-19T11:31:20;10.50;99.90
6018;DHT22;3037;51.068;13.780;2023-10-19T11:33:47;10.80;99.90
6018;DHT22;3037;51.068;13.780;2023-10-19T11:36:15;10.80;99.90
6018;DHT22;3037;51.068;13.780;2023-10-19T11:38:46;10.80;99.90
6018;DHT22;3037;51.068;13.780;2023-10-19T11:41:13;10.70;99.90
6018;DHT22;3037;51.068;13.780;2023-10-19T11:43:40;10.70;99.90
6018;DHT22;3037;51.068;13.780;2023-10-19T11:46:06;10.80;99.90
6018;DHT22;3037;51.068;13.780;2023-10-19T11:48:33;10.80;99.90
6018;DHT22;3037;51.068;13.780;2023-10-19T11:51:00;10.70;99.90
6018;DHT22;3037;51.068;13.780;2023-10-19T11:53:32;10.80;99.90
6018;DHT22;3037;51.068;13.780;2023-10-19T11:58:27;10.70;99.90
6018;DHT22;3037;51.068;13.780;2023-10-19T12:00:53;10.90;99.90
6018;DHT22;3037;51.068;13.780;2023-10-19T12:03:20;10.90;99.90
6018;DHT22;3037;51.068;13.780;2023-10-19T12:05:46;10.90;99.90
6018;DHT22;3037;51.068;13.780;2023-10-19T12:08:11;10.80;99.90
6018;DHT22;3037;51.068;13.780;2023-10-19T12:10:37;10.80;99.90
6018;DHT22;3037;51.068;13.780;2023-10-19T12:13:04;11.00;99.90
6018;DHT22;3037;51.068;13.780;2023-10-19T12:15:31;11.00;99.90
6018;DHT22;3037;51.068;13.780;2023-10-19T12:17:58;11.00;99.90
6018;DHT22;3037;51.068;13.780;2023-10-19T12:20:23;11.10;99.90
6018;DHT22;3037;51.068;13.780;2023-10-19T12:22:49;11.00;99.90
6018;DHT22;3037;51.068;13.780;2023-10-19T12:25:22;11.00;99.90
6018;DHT22;3037;51.068;13.780;2023-10-19T12:27:54;10.70;99.90
6018;DHT22;3037;51.068;13.780;2023-10-19T12:30:20;10.70;99.90
6018;DHT22;3037;51.068;13.780;2023-10-19T12:32:48;10.70;99.90
6018;DHT22;3037;51.068;13.780;2023-10-19T12:35:15;10.90;99.90
6018;DHT22;3037;51.068;13.780;2023-10-19T12:37:41;11.10;99.90
6018;DHT22;3037;51.068;13.780;2023-10-19T12:40:14;11.10;99.90
6018;DHT22;3037;51.068;13.780;2023-10-19T12:42:55;11.00;99.90
6018;DHT22;3037;51.068;13.780;2023-10-19T12:45:25;10.90;99.90
6018;DHT22;3037;51.068;13.780;2023-10-19T12:47:51;11.00;99.90
6018;DHT22;3037;51.068;13.780;2023-10-19T12:50:21;10.90;99.90
6018;DHT22;3037;51.068;13.780;2023-10-19T12:52:50;10.90;99.90
6018;DHT22;3037;51.068;13.780;2023-10-19T12:55:16;11.10;99.90
6018;DHT22;3037;51.068;13.780;2023-10-19T12:57:42;11.00;99.90
6018;DHT22;3037;51.068;13.780;2023-10-19T13:00:08;10.90;99.90
6018;DHT22;3037;51.068;13.780;2023-10-19T13:02:50;10.90;99.90
6018;DHT22;3037;51.068;13.780;2023-10-19T13:05:16;10.90;99.90
6018;DHT22;3037;51.068;13.780;2023-10-19T13:07:44;11.00;99.90
6018;DHT22;3037;51.068;13.780;2023-10-19T13:10:10;11.00;99.90
6018;DHT22;3037;51.068;13.780;2023-10-19T13:12:37;11.10;99.90
6018;DHT22;3037;51.068;13.780;2023-10-19T13:15:04;11.00;99.90
6018;DHT22;3037;51.068;13.780;2023-10-19T13:17:32;11.20;99.90
6018;DHT22;3037;51.068;13.780;2023-10-19T13:19:58;11.30;99.90
6018;DHT22;3037;51.068;13.780;2023-10-19T13:22:26;11.60;99.90
6018;DHT22;3037;51.068;13.780;2023-10-19T13:24:52;11.90;99.90
6018;DHT22;3037;51.068;13.780;2023-10-19T13:27:17;11.90;99.90
6018;DHT22;3037;51.068;13.780;2023-10-19T13:29:44;11.80;99.90
6018;DHT22;3037;51.068;13.780;2023-10-19T13:32:12;11.90;99.90
6018;DHT22;3037;51.068;13.780;2023-10-19T13:34:37;12.00;99.90
6018;DHT22;3037;51.068;13.780;2023-10-19T13:37:05;11.80;99.90
6018;DHT22;3037;51.068;13.780;2023-10-19T13:39:33;12.00;99.90
6018;DHT22;3037;51.068;13.780;2023-10-19T13:41:58;12.10;99.90
6018;DHT22;3037;51.068;13.780;2023-10-19T13:44:24;12.40;99.90
6018;DHT22;3037;51.068;13.780;2023-10-19T13:46:52;12.60;99.90
6018;DHT22;3037;51.068;13.780;2023-10-19T13:49:19;12.60;99.90
6018;DHT22;3037;51.068;13.780;2023-10-19T13:51:48;12.80;99.90
6018;DHT22;3037;51.068;13.780;2023-10-19T13:54:13;12.90;66.10
6018;DHT22;3037;51.068;13.780;2023-10-19T13:56:39;12.70;5.10
6018;DHT22;3037;51.068;13.780;2023-10-19T13:59:04;12.60;29.10
6018;DHT22;3037;51.068;13.780;2023-10-19T14:01:30;12.60;99.90
6018;DHT22;3037;51.068;13.780;2023-10-19T14:03:56;12.30;99.90
6018;DHT22;3037;51.068;13.780;2023-10-19T14:06:22;12.20;99.90
6018;DHT22;3037;51.068;13.780;2023-10-19T14:08:49;12.30;99.90
6018;DHT22;3037;51.068;13.780;2023-10-19T14:11:15;12.20;99.90
6018;DHT22;3037;51.068;13.780;2023-10-19T14:13:40;12.20;99.90
6018;DHT22;3037;51.068;13.780;2023-10-19T14:16:08;12.10;99.90
6018;DHT22;3037;51.068;13.780;2023-10-19T14:18:34;12.00;99.90
6018;DHT22;3037;51.068;13.780;2023-10-19T14:21:00;11.90;99.90
6018;DHT22;3037;51.068;13.780;2023-10-19T14:23:26;11.80;99.90
6018;DHT22;3037;51.068;13.780;2023-10-19T14:25:52;11.80;99.90
6018;DHT22;3037;51.068;13.780;2023-10-19T14:28:18;11.80;99.90
6018;DHT22;3037;51.068;13.780;2023-10-19T14:30:44;11.80;99.90
6018;DHT22;3037;51.068;13.780;2023-10-19T14:33:10;11.80;99.90
6018;DHT22;3037;51.068;13.780;2023-10-19T14:35:37;11.80;99.90
6018;DHT22;3037;51.068;13.780;2023-10-19T14:38:07;11.70;99.90
6018;DHT22;3037;51.068;13.780;2023-10-19T14:40:34;12.00;99.90
6018;DHT22;3037;51.068;13.780;2023-10-19T14:43:00;11.70;99.90
6018;DHT22;3037;51.068;13.780;2023-10-19T14:45:27;11.70;99.90
6018;DHT22;3037;51.068;13.780;2023-10-19T14:47:58;11.70;99.90
6018;DHT22;3037;51.068;13.780;2023-10-19T14:50:24;11.50;99.90
6018;DHT22;3037;51.068;13.780;2023-10-19T14:52:53;11.70;99.90
6018;DHT22;3037;51.068;13.780;2023-10-19T14:55:22;11.60;99.90
6018;DHT22;3037;51.068;13.780;2023-10-19T14:57:51;11.60;99.90
6018;DHT22;3037;51.068;13.780;2023-10-19T15:00:22;11.50;99.90
6018;DHT22;3037;51.068;13.780;2023-10-19T15:02:49;11.60;99.90
6018;DHT22;3037;51.068;13.780;2023-10-19T15:05:16;11.60;99.90
6018;DHT22;3037;51.068;13.780;2023-10-19T15:07:43;11.70;99.90
6018;DHT22;3037;51.068;13.780;2023-10-19T15:10:12;11.80;99.90
6018;DHT22;3037;51.068;13.780;2023-10-19T15:12:41;11.70;99.90
6018;DHT22;3037;51.068;13.780;2023-10-19T15:15:07;11.60;99.90
6018;DHT22;3037;51.068;13.780;2023-10-19T15:17:36;11.50;99.90
6018;DHT22;3037;51.068;13.780;2023-10-19T15:20:04;11.50;99.90
6018;DHT22;3037;51.068;13.780;2023-10-19T15:22:30;11.40;99.90
6018;DHT22;3037;51.068;13.780;2023-10-19T15:24:58;11.20;99.90
6018;DHT22;3037;51.068;13.780;2023-10-19T15:27:23;11.10;99.90
6018;DHT22;3037;51.068;13.780;2023-10-19T15:29:49;11.10;99.90
6018;DHT22;3037;51.068;13.780;2023-10-19T15:32:14;11.00;99.90
6018;DHT22;3037;51.068;13.780;2023-10-19T15:34:43;10.80;99.90
6018;DHT22;3037;51.068;13.780;2023-10-19T15:37:09;10.80;99.90
6018;DHT22;3037;51.068;13.780;2023-10-19T15:39:34;10.80;99.90
6018;DHT22;3037;51.068;13.780;2023-10-19T15:42:00;10.70;99.90
6018;DHT22;3037;51.068;13.780;2023-10-19T15:44:26;10.80;99.90
6018;DHT22;3037;51.068;13.780;2023-10-19T15:46:51;10.70;99.90
6018;DHT22;3037;51.068;13.780;2023-10-19T15:49:21;10.60;99.90
6018;DHT22;3037;51.068;13.780;2023-10-19T15:51:47;10.60;99.90
6018;DHT22;3037;51.068;13.780;2023-10-19T15:54:13;10.60;99.90
6018;DHT22;3037;51.068;13.780;2023-10-19T15:56:38;10.60;99.90
6018;DHT22;3037;51.068;13.780;2023-10-19T15:59:04;10.40;99.90
6018;DHT22;3037;51.068;13.780;2023-10-19T16:01:30;10.40;99.90
6018;DHT22;3037;51.068;13.780;2023-10-19T16:03:56;10.40;99.90
6018;DHT22;3037;51.068;13.780;2023-10-19T16:06:22;10.30;99.90
6018;DHT22;3037;51.068;13.780;2023-10-19T16:08:47;10.30;99.90
6018;DHT22;3037;51.068;13.780;2023-10-19T16:11:13;10.20;99.90
6018;DHT22;3037;51.068;13.780;2023-10-19T16:13:39;10.30;99.90
6018;DHT22;3037;51.068;13.780;2023-10-19T16:16:05;10.30;99.90
6018;DHT22;3037;51.068;13.780;2023-10-19T16:18:32;10.30;99.90
6018;DHT22;3037;51.068;13.780;2023-10-19T16:20:58;10.20;99.90
6018;DHT22;3037;51.068;13.780;2023-10-19T16:23:24;10.20;99.90
6018;DHT22;3037;51.068;13.780;2023-10-19T16:25:57;10.20;99.90